Benicassim, Spain
Current Conditions -  °F | °C
As of 8:00 AM on Saturday 25 Oct 2014 (Local Time) from LEBT Reporting Station
Clear Clear  
Wind Chill: 55°   Ceiling: Unl
Heat Index: 55°   Visibility: 6mi
Dew Point: 41°   Wind: 2mph
Humidity: 58%   Direction: 300°WNW
Pressure: 30.06"   Gusts: NA
Location:  40.05°N, 0.07°E
Report Text: LEBT 250600Z AUTO 30002KT CAVOK 13/05 Q1018
Loading
Personal Weather Stations






























Interactive Weather Map
Tropical Storm Tracking
New forecast layout! Learn more

10-Day Weather Forecast

Advertisements
Track Severe Weather on mobile